Time;durP1;ratioP1;P1;durP2;ratioP2;P2;SDS_P1;SDS_P2;PMS_P1;PMS_P2;Temp;Humidity;BMP_temperature;BMP_pressure;BME280_temperature;BME280_humidity;BME280_pressure;Samples;Min_cycle;Max_cycle;Signal;HPM_P1;HPM_P2
2022/09/02 13:14:28;;;;;;;0.40;0.40;;;28.00;88.80;29.50;101145.00;;;;6259309;22;1278929;-80
2022/09/02 13:20:52;;;;;;;0.38;0.38;;;28.00;87.80;29.30;101122.00;;;;6291144;22;20191;-77
2022/09/02 13:24:02;;;;;;;0.45;0.45;;;28.10;87.30;29.30;101129.00;;;;6341622;22;20196;-77
2022/09/02 13:27:02;;;;;;;0.20;0.20;;;28.10;86.20;29.20;101138.00;;;;6343003;22;20513;-77
2022/09/02 13:29:50;;;;;;;0.43;0.43;;;28.00;85.90;29.10;101128.00;;;;6370723;22;20222;-77
2022/09/02 13:32:28;;;;;;;0.20;0.20;;;27.90;85.80;29.60;101110.00;;;;6371026;22;20143;-77
2022/09/02 13:35:00;;;;;;;0.20;0.20;;;28.00;85.60;29.40;101124.00;;;;6342792;22;20485;-77
2022/09/02 13:37:38;;;;;;;0.63;0.63;;;28.10;85.80;29.00;101128.00;;;;6343438;22;20148;-77
2022/09/02 13:40:16;;;;;;;0.32;0.32;;;28.00;84.90;28.80;101127.00;;;;6343059;22;20162;-77
2022/09/02 13:43:13;;;;;;;0.50;0.50;;;27.90;84.50;28.50;101124.00;;;;6342952;22;20163;-77
2022/09/02 13:45:43;;;;;;;0.10;0.10;;;27.60;84.40;29.50;101115.00;;;;6348078;22;20163;-77
2022/09/02 13:48:28;;;;;;;0.10;0.10;;;28.00;84.30;30.00;101115.00;;;;6343142;22;20154;-75
2022/09/02 13:51:08;;;;;;;0.80;0.80;;;28.20;83.60;29.60;101105.00;;;;6342549;22;20613;-77
2022/09/02 13:53:38;;;;;;;0.17;0.17;;;28.20;83.50;29.50;101107.00;;;;6343063;22;20170;-77
2022/09/02 13:56:12;;;;;;;0.10;0.10;;;28.20;83.20;29.60;101103.00;;;;6316811;22;20204;-77
2022/09/02 13:58:52;;;;;;;0.30;0.30;;;28.20;81.90;29.20;101081.00;;;;6342683;22;20175;-77
2022/09/02 14:01:29;;;;;;;0.20;0.20;;;28.20;81.40;29.30;101094.00;;;;6342976;22;20237;-75
2022/09/02 14:04:08;;;;;;;0.40;0.40;;;28.20;81.20;29.20;101089.00;;;;6343104;22;20468;-72
2022/09/02 14:06:39;;;;;;;0.47;0.47;;;28.10;80.70;29.10;101068.00;;;;6342775;22;20134;-80
2022/09/02 14:09:46;;;;;;;0.50;0.50;;;28.10;80.50;29.60;101083.00;;;;6343325;22;20147;-81
2022/09/02 14:12:12;;;;;;;0.25;0.25;;;28.20;80.10;29.70;101037.00;;;;6338989;22;20162;-72
2022/09/02 14:14:43;;;;;;;0.20;0.20;;;28.30;79.00;30.00;101029.00;;;;6343054;22;20576;-76
2022/09/02 14:17:25;;;;;;;0.63;0.63;;;28.40;79.60;29.10;101070.00;;;;6316958;22;20170;-77
2022/09/02 14:20:07;;;;;;;0.30;0.30;;;28.30;78.30;28.80;101025.00;;;;6342670;22;20645;-82
2022/09/02 14:22:39;;;;;;;0.10;0.10;;;28.00;79.20;29.30;101062.00;;;;6370248;22;20596;-74
2022/09/02 14:25:15;;;;;;;0.40;0.40;;;27.90;78.50;29.10;101051.00;;;;6342964;22;20143;-73
2022/09/02 14:27:59;;;;;;;1.20;0.75;;;28.00;81.00;29.30;101062.00;;;;6341553;22;20162;-73
2022/09/02 14:30:59;;;;;;;0.40;0.40;;;28.00;78.60;29.20;101055.00;;;;6343175;22;20188;-71
2022/09/02 14:33:45;;;;;;;0.50;0.35;;;28.00;82.90;28.70;101064.00;;;;6342256;22;20159;-73
2022/09/02 14:36:19;;;;;;;0.40;0.30;;;27.80;78.30;28.20;101072.00;;;;6370479;22;20157;-73
2022/09/02 14:38:45;;;;;;;0.13;0.13;;;27.60;78.50;29.00;101056.00;;;;6370612;22;20162;-68
2022/09/02 14:41:24;;;;;;;0.82;0.50;;;27.60;80.40;28.90;101054.00;;;;6370051;22;20166;-77
2022/09/02 14:44:11;;;;;;;0.60;0.60;;;27.60;78.70;28.50;101053.00;;;;6343049;22;20139;-69
2022/09/02 14:46:50;;;;;;;0.80;0.80;;;27.50;77.70;28.50;101050.00;;;;6342804;22;20464;-69
2022/09/02 14:49:45;;;;;;;0.10;0.10;;;27.50;78.50;29.30;101048.00;;;;6342391;22;20150;-74
2022/09/02 14:52:29;;;;;;;0.65;0.65;;;27.60;78.70;29.10;101052.00;;;;6342774;22;20188;-69
2022/09/02 14:54:57;;;;;;;0.15;0.15;;;27.70;79.80;28.80;101049.00;;;;6342945;22;20146;-70
2022/09/02 14:57:36;;;;;;;0.10;0.10;;;27.60;78.30;28.60;101048.00;;;;6369937;22;20542;-70
2022/09/02 15:00:17;;;;;;;0.10;0.10;;;27.50;79.20;28.90;101036.00;;;;6343039;22;20175;-69
2022/09/02 15:02:47;;;;;;;0.28;0.28;;;27.50;77.80;28.60;101031.00;;;;6369781;22;20721;-70
2022/09/02 15:05:14;;;;;;;0.10;0.10;;;27.40;77.80;29.30;101029.00;;;;6369021;22;20185;-73
2022/09/02 15:07:45;;;;;;;0.10;0.10;;;27.60;78.80;29.20;101023.00;;;;6370090;22;20143;-69
2022/09/02 15:10:11;;;;;;;0.28;0.28;;;27.70;76.70;29.40;101009.00;;;;6342188;22;20197;-72
2022/09/02 15:12:48;;;;;;;0.32;0.32;;;28.00;78.10;29.10;101024.00;;;;6342135;22;20456;-75
2022/09/02 15:15:14;;;;;;;0.28;0.28;;;27.90;77.30;28.90;100995.00;;;;6342619;22;20158;-75
2022/09/02 15:17:40;;;;;;;1.20;0.57;;;27.80;76.40;29.10;101013.00;;;;6341423;22;20520;-72
2022/09/02 15:20:07;;;;;;;0.45;0.35;;;27.70;77.10;28.90;101014.00;;;;6370988;22;20174;-71
2022/09/02 15:22:34;;;;;;;0.25;0.25;;;27.60;77.70;28.40;101016.00;;;;6344572;22;20158;-71
2022/09/02 15:25:06;;;;;;;0.10;0.10;;;27.50;75.80;28.50;101002.00;;;;6343928;22;20143;-76
2022/09/02 15:27:36;;;;;;;0.20;0.20;;;27.40;75.40;28.80;101011.00;;;;6344537;22;20174;-74
2022/09/02 15:30:05;;;;;;;0.30;0.30;;;27.50;76.60;28.70;101002.00;;;;6343727;22;20159;-70
2022/09/02 15:32:31;;;;;;;0.43;0.43;;;27.40;75.20;28.30;101005.00;;;;6370196;22;20151;-74
2022/09/02 15:35:02;;;;;;;0.10;0.10;;;27.30;77.30;28.80;101008.00;;;;6372374;22;20143;-74
2022/09/02 15:37:28;;;;;;;0.10;0.10;;;27.30;77.00;28.50;101001.00;;;;6344122;22;20150;-75
2022/09/02 15:39:57;;;;;;;0.55;0.55;;;27.30;77.60;28.70;101011.00;;;;6343770;22;20770;-75
2022/09/02 15:42:23;;;;;;;0.10;0.10;;;27.20;75.20;29.00;100987.00;;;;6344072;22;20243;-75
2022/09/02 15:44:51;;;;;;;0.20;0.20;;;27.40;75.20;28.70;100996.00;;;;6344250;22;20574;-74
2022/09/02 15:47:20;;;;;;;0.10;0.10;;;27.30;76.60;28.60;100987.00;;;;6344619;22;20137;-75
2022/09/02 15:49:49;;;;;;;0.10;0.10;;;27.20;75.30;28.40;101003.00;;;;6343961;22;20142;-75
2022/09/02 15:52:14;;;;;;;0.13;0.13;;;27.20;75.30;29.00;100989.00;;;;6370515;22;20194;-74
2022/09/02 15:54:40;;;;;;;0.10;0.10;;;27.40;76.60;29.00;100996.00;;;;6343913;22;20159;-73
2022/09/02 15:57:10;;;;;;;0.30;0.30;;;27.40;76.90;28.90;100967.00;;;;6344056;22;20234;-75
2022/09/02 15:59:39;;;;;;;0.10;0.10;;;27.60;75.40;28.80;100988.00;;;;6344051;22;20148;-75
2022/09/02 16:02:07;;;;;;;0.10;0.10;;;27.50;75.70;29.30;100982.00;;;;6344945;22;20166;-74
2022/09/02 16:04:33;;;;;;;0.30;0.30;;;27.70;75.40;29.10;100986.00;;;;6343917;22;20155;-75
2022/09/02 16:07:00;;;;;;;0.10;0.10;;;27.60;74.80;29.10;100980.00;;;;6343744;22;20154;-74
2022/09/02 16:09:28;;;;;;;1.00;0.45;;;27.80;75.30;29.20;100985.00;;;;6344024;22;20138;-74
2022/09/02 16:11:59;;;;;;;0.30;0.30;;;27.70;74.90;28.90;100978.00;;;;6344029;22;20190;-74
2022/09/02 16:14:30;;;;;;;0.20;0.20;;;27.50;73.80;28.50;100939.00;;;;6371981;22;20143;-74
2022/09/02 16:16:56;;;;;;;0.10;0.10;;;27.40;74.90;29.30;100975.00;;;;6344425;22;20249;-74
2022/09/02 16:19:28;;;;;;;0.10;0.10;;;27.50;74.40;29.00;100984.00;;;;6343770;22;20299;-75
2022/09/02 16:21:54;;;;;;;0.30;0.30;;;27.50;74.50;28.90;100975.00;;;;6344277;22;20166;-74
2022/09/02 16:24:41;;;;;;;0.10;0.10;;;27.50;74.50;29.10;100929.00;;;;6339164;22;20162;-74
2022/09/02 16:27:08;;;;;;;0.20;0.20;;;27.60;74.30;29.20;100927.00;;;;6343560;22;20614;-74
2022/09/02 16:29:38;;;;;;;0.10;0.10;;;27.60;74.90;29.80;100961.00;;;;6343734;22;20147;-74
2022/09/02 16:32:04;;;;;;;0.10;0.10;;;27.90;73.50;29.00;100966.00;;;;6371919;22;20409;-72
2022/09/02 16:34:30;;;;;;;0.10;0.10;;;27.70;74.40;28.90;100967.00;;;;6370317;22;20242;-74
2022/09/02 16:36:56;;;;;;;0.10;0.10;;;27.60;74.90;29.30;100976.00;;;;6371761;22;20179;-74
2022/09/02 16:39:23;;;;;;;0.20;0.20;;;27.60;75.00;28.60;100983.00;;;;6343174;22;20154;-75
2022/09/02 16:42:09;;;;;;;0.20;0.20;;;27.50;74.70;28.30;100938.00;;;;6370994;22;20170;-74
2022/09/02 16:44:36;;;;;;;0.10;0.10;;;27.30;75.30;28.40;100966.00;;;;6321331;22;20238;-74
2022/09/02 16:47:12;;;;;;;0.63;0.32;;;27.10;76.00;28.20;100936.00;;;;6371699;22;20139;-74
2022/09/02 16:49:38;;;;;;;0.32;0.32;;;27.10;75.90;28.10;100930.00;;;;6294862;22;20230;-74
2022/09/02 16:52:07;;;;;;;0.35;0.35;;;26.90;77.60;28.50;100970.00;;;;6370479;22;20520;-74
2022/09/02 16:54:32;;;;;;;0.28;0.28;;;27.10;76.90;27.80;100982.00;;;;6343799;22;20162;-74
2022/09/02 16:57:00;;;;;;;0.20;0.20;;;26.90;76.70;28.00;100977.00;;;;6343645;22;20186;-74
2022/09/02 16:59:26;;;;;;;0.38;0.38;;;26.90;78.00;28.10;100966.00;;;;6345068;22;20173;-75
2022/09/02 17:01:52;;;;;;;0.10;0.10;;;26.90;77.90;28.90;100957.00;;;;6344338;22;20159;-75
2022/09/02 17:04:18;;;;;;;0.80;0.40;;;27.10;77.80;28.80;100978.00;;;;6369163;22;20154;-75
2022/09/02 17:06:43;;;;;;;0.25;0.25;;;27.20;77.60;28.90;100962.00;;;;6343288;22;20143;-75
2022/09/02 17:09:12;;;;;;;0.10;0.10;;;27.30;77.60;28.50;100966.00;;;;6342519;22;20218;-75
2022/09/02 17:11:40;;;;;;;0.10;0.10;;;27.30;77.70;28.20;100968.00;;;;6371210;22;20151;-75
2022/09/02 17:14:12;;;;;;;0.10;0.10;;;27.00;78.60;28.60;100970.00;;;;6372438;22;20196;-75
2022/09/02 17:16:44;;;;;;;0.10;0.10;;;27.10;78.90;28.90;100962.00;;;;6342906;22;20163;-75
2022/09/02 17:19:19;;;;;;;0.10;0.10;;;27.30;78.30;28.20;100950.00;;;;6343178;22;20178;-74
2022/09/02 17:21:51;;;;;;;0.10;0.10;;;27.00;79.30;28.30;100963.00;;;;6370549;22;20173;-74
2022/09/02 17:24:19;;;;;;;0.20;0.20;;;26.90;79.60;28.10;100959.00;;;;6343212;22;20168;-74
2022/09/02 17:26:49;;;;;;;0.40;0.40;;;26.80;79.70;28.20;100984.00;;;;6342896;22;20219;-74
2022/09/02 17:29:18;;;;;;;0.20;0.20;;;26.70;80.30;28.40;100967.00;;;;6343041;22;20147;-74
2022/09/02 17:31:45;;;;;;;0.30;0.30;;;26.70;80.00;27.80;100965.00;;;;6341741;22;20143;-74
2022/09/02 17:34:12;;;;;;;0.20;0.20;;;26.60;80.20;27.70;100978.00;;;;6370327;22;20135;-74
2022/09/02 17:36:42;;;;;;;0.20;0.20;;;26.40;80.60;27.80;100974.00;;;;6342716;22;20154;-74
2022/09/02 17:39:15;;;;;;;0.13;0.13;;;26.40;80.50;27.70;100962.00;;;;6343089;22;20512;-74
2022/09/02 17:41:54;;;;;;;0.65;0.65;;;26.40;80.50;27.50;100970.00;;;;6342622;22;20216;-74
2022/09/02 17:44:35;;;;;;;0.10;0.10;;;26.30;80.60;27.50;100971.00;;;;6345503;22;20162;-73
2022/09/02 17:47:07;;;;;;;0.80;0.40;;;26.20;81.00;27.30;100976.00;;;;6342200;22;20580;-71
2022/09/02 17:49:35;;;;;;;1.27;1.13;;;26.10;82.10;27.20;100972.00;;;;6343358;22;20142;-69
2022/09/02 17:52:04;;;;;;;0.47;0.30;;;26.00;81.40;27.30;100937.00;;;;6342861;22;20155;-69
2022/09/02 17:54:37;;;;;;;0.10;0.10;;;25.90;81.40;27.10;100965.00;;;;6343738;22;20140;-75
2022/09/02 17:57:43;;;;;;;0.10;0.10;;;25.90;81.20;27.20;100946.00;;;;6342786;22;20201;-74
2022/09/02 18:00:14;;;;;;;0.17;0.17;;;25.90;82.20;27.40;100950.00;;;;6370904;22;20174;-73
2022/09/02 18:03:27;;;;;;;0.17;0.17;;;25.90;81.50;27.30;100961.00;;;;6342328;22;20167;-78
2022/09/02 18:06:18;;;;;;;0.20;0.20;;;26.00;81.90;27.40;100967.00;;;;6342876;22;20177;-78
2022/09/02 18:08:55;;;;;;;0.43;0.43;;;26.00;82.70;27.50;100968.00;;;;6342749;22;20204;-78
2022/09/02 18:11:22;;;;;;;0.10;0.10;;;25.90;81.90;27.20;100963.00;;;;6342880;22;20173;-79
2022/09/02 18:14:02;;;;;;;0.13;0.13;;;25.90;82.80;27.60;100957.00;;;;6341749;22;20161;-78
2022/09/02 18:16:34;;;;;;;0.10;0.10;;;25.80;82.60;27.50;100968.00;;;;6369927;22;20268;-78
2022/09/02 18:19:17;;;;;;;0.10;0.10;;;25.80;83.30;27.10;100967.00;;;;6342642;22;20190;-79
2022/09/02 18:22:07;;;;;;;0.10;0.10;;;25.70;84.00;26.90;100936.00;;;;6343041;22;20170;-79
2022/09/02 18:24:51;;;;;;;0.10;0.10;;;25.50;84.30;26.80;100970.00;;;;6343096;22;20218;-80
2022/09/02 18:28:05;;;;;;;0.20;0.20;;;25.40;84.00;26.70;100969.00;;;;6368442;22;20154;-78
2022/09/02 18:31:21;;;;;;;0.10;0.10;;;25.40;84.10;26.50;100977.00;;;;6370491;22;20174;-79
2022/09/02 18:34:20;;;;;;;0.10;0.10;;;25.30;84.30;26.50;100979.00;;;;6336176;22;20159;-78
2022/09/02 18:36:54;;;;;;;0.55;0.55;;;25.20;85.10;26.10;100980.00;;;;6342155;22;20185;-78
2022/09/02 18:40:10;;;;;;;0.10;0.10;;;25.00;85.20;26.30;100982.00;;;;6370386;22;20140;-78
2022/09/02 18:42:55;;;;;;;0.10;0.10;;;24.90;84.90;26.20;100981.00;;;;6369542;22;20271;-79
2022/09/02 18:45:23;;;;;;;0.10;0.10;;;24.90;84.80;26.70;100982.00;;;;6370193;22;20475;-80
2022/09/02 18:47:57;;;;;;;0.10;0.10;;;25.00;85.20;26.20;100983.00;;;;6369308;22;20139;-79
2022/09/02 18:50:38;;;;;;;0.15;0.15;;;24.90;84.50;26.20;100984.00;;;;6342646;22;20159;-78
2022/09/02 18:53:09;;;;;;;0.10;0.10;;;24.80;84.30;26.00;100985.00;;;;6343563;22;20218;-78
2022/09/02 18:55:37;;;;;;;0.10;0.10;;;24.60;84.50;26.10;100976.00;;;;6344740;22;20511;-78
2022/09/02 18:58:46;;;;;;;0.10;0.10;;;24.60;84.70;25.80;100991.00;;;;6344493;22;20165;-80
2022/09/02 19:01:38;;;;;;;0.20;0.20;;;24.50;85.00;25.60;100958.00;;;;6336501;22;20164;-79
2022/09/02 19:04:08;;;;;;;0.10;0.10;;;24.40;85.20;26.00;100991.00;;;;6344694;22;20162;-82
2022/09/02 19:06:39;;;;;;;0.10;0.10;;;24.40;85.90;26.00;100991.00;;;;6344472;22;20189;-77
2022/09/02 19:09:15;;;;;;;0.10;0.10;;;24.40;85.90;26.30;100982.00;;;;6344654;22;20196;-80
2022/09/02 19:11:45;;;;;;;0.20;0.20;;;24.60;85.40;26.00;100993.00;;;;6344603;22;20135;-77
2022/09/02 19:14:44;;;;;;;0.10;0.10;;;24.60;85.30;25.70;100993.00;;;;6344400;22;20138;-72
2022/09/02 19:17:12;;;;;;;0.10;0.10;;;24.40;85.40;25.90;100995.00;;;;6344810;22;20161;-73
2022/09/02 19:19:43;;;;;;;0.10;0.10;;;24.50;85.60;25.70;101002.00;;;;6344649;22;20563;-72
2022/09/02 19:22:12;;;;;;;0.10;0.10;;;24.40;85.80;25.80;100991.00;;;;6317871;22;20170;-73
2022/09/02 19:24:48;;;;;;;0.10;0.10;;;24.20;85.80;25.90;100994.00;;;;6344585;22;20564;-73
2022/09/02 19:27:19;;;;;;;0.10;0.10;;;24.10;86.10;26.10;100991.00;;;;6343766;22;20186;-72
2022/09/02 19:29:51;;;;;;;0.10;0.10;;;24.20;86.20;25.70;100975.00;;;;6343144;22;20143;-73
2022/09/02 19:32:26;;;;;;;0.77;0.77;;;24.20;86.20;26.00;101003.00;;;;6344324;22;20148;-73
2022/09/02 19:34:59;;;;;;;0.10;0.10;;;24.30;86.30;25.80;101010.00;;;;6344285;22;20587;-73
2022/09/02 19:37:31;;;;;;;0.10;0.10;;;24.30;86.10;25.50;100998.00;;;;6343913;22;20154;-73
2022/09/02 19:40:13;;;;;;;0.10;0.10;;;24.00;86.50;25.20;101002.00;;;;6372377;22;20150;-73
2022/09/02 19:42:42;;;;;;;0.10;0.10;;;23.90;87.10;25.30;101004.00;;;;6345496;22;20159;-73
2022/09/02 19:45:13;;;;;;;0.10;0.10;;;23.70;87.60;24.90;100981.00;;;;6343819;22;20139;-73
2022/09/02 19:47:43;;;;;;;0.10;0.10;;;23.60;88.00;24.80;101009.00;;;;6343723;22;20219;-73
2022/09/02 19:50:12;;;;;;;0.10;0.10;;;23.50;88.50;25.00;101013.00;;;;6371553;22;20139;-73
2022/09/02 19:52:44;;;;;;;2.30;2.20;;;23.40;89.00;24.60;100985.00;;;;6344181;22;20166;-73
2022/09/02 19:55:16;;;;;;;0.10;0.10;;;23.40;88.80;24.50;101023.00;;;;6344212;22;20286;-73
2022/09/02 19:57:47;;;;;;;0.20;0.20;;;23.30;89.10;24.50;101000.00;;;;6343783;22;20477;-73
2022/09/02 20:00:16;;;;;;;0.10;0.10;;;23.20;89.40;25.20;101013.00;;;;6343887;22;20571;-73
2022/09/02 20:02:50;;;;;;;0.10;0.10;;;23.40;89.70;25.50;101006.00;;;;6343937;22;20163;-73
2022/09/02 20:05:23;;;;;;;0.10;0.10;;;23.60;90.00;25.00;100976.00;;;;6344629;22;20132;-73
2022/09/02 20:07:55;;;;;;;0.10;0.10;;;23.70;89.50;25.60;101022.00;;;;6371319;22;20513;-73
2022/09/02 20:10:23;;;;;;;0.10;0.10;;;23.80;90.50;25.20;100987.00;;;;6344169;22;20579;-73
2022/09/02 20:12:49;;;;;;;0.10;0.10;;;23.80;89.90;25.30;101009.00;;;;6343281;22;20254;-73
2022/09/02 20:15:16;;;;;;;0.30;0.30;;;23.70;90.10;25.20;100997.00;;;;6372213;22;20211;-73
2022/09/02 20:17:44;;;;;;;0.40;0.40;;;23.60;89.70;24.70;101004.00;;;;6344343;22;20240;-73
2022/09/02 20:20:21;;;;;;;0.10;0.10;;;23.60;89.00;25.40;101009.00;;;;6343332;22;20538;-73
2022/09/02 20:22:53;;;;;;;0.10;0.10;;;23.60;90.70;25.50;101017.00;;;;6344244;22;20177;-73
2022/09/02 20:25:28;;;;;;;0.10;0.10;;;23.70;91.30;24.80;101002.00;;;;6344169;22;20139;-73
2022/09/02 20:28:06;;;;;;;0.10;0.10;;;23.50;90.00;25.00;101009.00;;;;6342945;22;20233;-73
2022/09/02 20:30:39;;;;;;;0.10;0.10;;;23.40;90.20;25.10;101008.00;;;;6343511;22;20158;-74
2022/09/02 20:33:20;;;;;;;0.20;0.20;;;23.50;90.10;24.90;100965.00;;;;6343866;22;20151;-73
2022/09/02 20:36:04;;;;;;;0.10;0.10;;;23.40;91.00;24.80;100967.00;;;;6343845;22;20139;-72
2022/09/02 20:39:12;;;;;;;0.10;0.10;;;23.30;90.10;24.80;101002.00;;;;6371712;22;20142;-72
2022/09/02 20:42:05;;;;;;;0.10;0.10;;;23.10;90.00;24.50;101011.00;;;;6369589;22;20525;-71
2022/09/02 20:45:20;;;;;;;0.10;0.10;;;23.10;90.20;24.80;101019.00;;;;6342528;22;20158;-71
2022/09/02 20:48:10;;;;;;;0.10;0.10;;;23.10;90.70;24.20;101019.00;;;;6369407;22;20190;-71
2022/09/02 20:50:56;;;;;;;0.10;0.10;;;23.00;91.50;24.50;101017.00;;;;6343433;22;20185;-71
2022/09/02 20:53:39;;;;;;;0.10;0.10;;;23.10;93.10;24.40;101023.00;;;;6343817;22;20175;-72
2022/09/02 20:56:22;;;;;;;0.10;0.10;;;22.90;94.30;25.20;101016.00;;;;6369884;22;20602;-72
2022/09/02 20:59:09;;;;;;;0.52;0.52;;;23.40;94.70;24.50;101020.00;;;;6371186;22;20146;-72
2022/09/02 21:01:40;;;;;;;0.10;0.10;;;23.30;95.20;24.50;101009.00;;;;6371212;22;20146;-72
2022/09/02 21:04:33;;;;;;;0.10;0.10;;;23.20;96.40;23.60;101015.00;;;;6342893;22;20289;-72
2022/09/02 21:07:23;;;;;;;0.10;0.10;;;22.70;96.90;24.40;100957.00;;;;6343926;22;20622;-72
2022/09/02 21:10:17;;;;;;;0.25;0.25;;;22.70;95.90;24.60;100983.00;;;;6342920;22;20177;-71
2022/09/02 21:12:52;;;;;;;0.10;0.10;;;23.00;94.90;24.80;100975.00;;;;6343450;22;20166;-72
2022/09/02 21:15:42;;;;;;;0.10;0.10;;;22.90;94.80;24.90;100984.00;;;;6343257;22;20140;-71
2022/09/02 21:18:44;;;;;;;0.10;0.10;;;23.20;93.20;24.80;100974.00;;;;6343317;22;20170;-71
2022/09/02 21:21:46;;;;;;;0.10;0.10;;;23.20;92.70;24.70;100956.00;;;;6342703;22;20150;-71
2022/09/02 21:24:36;;;;;;;0.10;0.10;;;23.10;92.20;24.70;100975.00;;;;6343423;22;20149;-71
2022/09/02 21:27:07;;;;;;;0.20;0.20;;;23.20;91.80;24.10;100965.00;;;;6342866;22;20162;-71
2022/09/02 21:29:45;;;;;;;0.20;0.20;;;23.00;91.70;24.40;100961.00;;;;6370968;22;20149;-71
2022/09/02 21:32:39;;;;;;;0.10;0.10;;;22.90;91.90;24.00;100958.00;;;;6342422;22;20641;-71
2022/09/02 21:35:17;;;;;;;0.10;0.10;;;22.70;91.90;24.30;100922.00;;;;6343383;22;20214;-71
2022/09/02 21:37:44;;;;;;;0.10;0.10;;;22.70;92.10;24.40;100962.00;;;;6371082;22;20139;-71
2022/09/02 21:40:17;;;;;;;0.10;0.10;;;22.70;91.90;24.30;100960.00;;;;6343322;22;20154;-72
2022/09/02 21:42:51;;;;;;;0.10;0.10;;;22.80;91.70;23.60;100913.00;;;;6343053;22;20162;-72
2022/09/02 21:46:13;;;;;;;0.10;0.10;;;22.50;92.10;24.10;100949.00;;;;6342876;22;20161;-72
2022/09/02 21:49:02;;;;;;;0.10;0.10;;;22.40;92.30;24.30;100951.00;;;;6306932;22;20163;-71
2022/09/02 21:51:37;;;;;;;0.20;0.20;;;22.50;92.10;24.30;100957.00;;;;6370515;22;20151;-71
2022/09/02 21:54:23;;;;;;;0.10;0.10;;;22.60;91.90;23.80;100958.00;;;;6343174;22;20139;-72
2022/09/02 21:56:56;;;;;;;0.10;0.10;;;22.40;92.10;24.00;100956.00;;;;6369500;22;20159;-71
2022/09/02 21:59:51;;;;;;;0.10;0.10;;;22.30;92.40;23.30;100966.00;;;;6370425;22;20568;-71
2022/09/02 22:02:56;;;;;;;0.65;0.65;;;22.30;92.30;23.50;100967.00;;;;6357114;22;20186;-72
2022/09/02 22:05:50;;;;;;;0.63;0.63;;;22.00;92.70;23.20;100968.00;;;;6342902;22;20158;-72
2022/09/02 22:08:41;;;;;;;0.15;0.15;;;21.90;92.90;23.40;100960.00;;;;6370445;22;20598;-71
2022/09/02 22:11:31;;;;;;;0.10;0.10;;;21.90;93.00;23.40;100962.00;;;;6370115;22;20572;-71
2022/09/02 22:14:07;;;;;;;0.20;0.20;;;21.90;93.00;22.90;100970.00;;;;6341885;22;20198;-71
2022/09/02 22:16:57;;;;;;;0.10;0.10;;;21.70;93.20;22.90;100974.00;;;;6342499;22;20564;-71
2022/09/02 22:19:30;;;;;;;0.10;0.10;;;21.60;93.30;22.50;100948.00;;;;6343754;22;20224;-73
2022/09/02 22:33:32;;;;;;;0.10;0.10;;;20.50;95.20;21.40;100984.00;;;;5069514;28;20561;-70
2022/09/02 22:36:23;;;;;;;0.13;0.13;;;20.40;96.00;22.20;100959.00;;;;5065810;28;20248;-70
2022/09/02 22:38:52;;;;;;;0.10;0.10;;;20.70;95.80;22.30;100968.00;;;;5064761;28;20268;-70
2022/09/02 22:41:51;;;;;;;0.40;0.40;;;20.90;95.40;22.20;100966.00;;;;5063645;28;20260;-71
2022/09/02 22:52:55;;;;;;;0.20;0.20;;;21.00;95.00;22.30;100953.00;;;;5063405;28;20307;-71
2022/09/02 22:56:02;;;;;;;0.63;0.30;;;21.10;95.10;22.00;100926.00;;;;5065611;28;20265;-71
2022/09/02 22:59:11;;;;;;;0.30;0.30;;;21.00;94.90;22.00;100959.00;;;;5048998;28;20697;-69
2022/09/02 23:01:56;;;;;;;0.22;0.22;;;20.80;95.30;22.20;100958.00;;;;5048467;28;20671;-70
2022/09/02 23:04:50;;;;;;;0.20;0.20;;;20.90;95.40;22.20;100920.00;;;;5065809;28;20191;-70
2022/09/02 23:07:16;;;;;;;0.30;0.30;;;21.00;95.40;22.20;100911.00;;;;5065399;28;20177;-71
2022/09/02 23:09:43;;;;;;;2.10;1.23;;;21.00;95.40;21.60;100955.00;;;;5065368;28;20172;-70
2022/09/02 23:12:16;;;;;;;0.10;0.10;;;20.90;95.40;22.00;100953.00;;;;5064386;28;20208;-70
2022/09/02 23:15:22;;;;;;;1.45;0.38;;;20.70;95.90;22.10;100938.00;;;;5048299;28;20205;-70
2022/09/02 23:18:17;;;;;;;0.32;0.32;;;20.80;95.90;21.70;100913.00;;;;5048244;28;20181;-70
2022/09/02 23:21:17;;;;;;;0.30;0.30;;;20.80;95.90;22.10;100908.00;;;;5064492;28;20183;-71
2022/09/02 23:23:54;;;;;;;0.25;0.25;;;20.80;96.10;22.10;100949.00;;;;5064496;28;20173;-71
2022/09/02 23:26:34;;;;;;;0.20;0.20;;;20.70;96.20;22.30;100928.00;;;;5064756;28;20691;-72
2022/09/02 23:29:15;;;;;;;0.10;0.10;;;20.90;96.10;21.90;100921.00;;;;5065097;28;20169;-71
2022/09/02 23:31:57;;;;;;;2.63;0.68;;;20.70;96.30;22.00;100946.00;;;;5048727;28;20432;-72
2022/09/02 23:34:50;;;;;;;0.13;0.13;;;20.60;96.70;21.80;100951.00;;;;5047779;28;20182;-71
2022/09/02 23:37:44;;;;;;;0.15;0.15;;;20.60;96.80;22.00;100945.00;;;;5064598;28;20735;-72
2022/09/02 23:43:17;;;;;;;0.30;0.30;;;20.50;97.40;21.80;100912.00;;;;4784101;26;20233;-78
2022/09/02 23:45:45;;;;;;;0.10;0.10;;;20.50;97.60;22.00;100897.00;;;;5030896;28;20222;-79
2022/09/02 23:48:40;;;;;;;0.13;0.13;;;20.60;97.70;22.10;100930.00;;;;5014416;28;20183;-79
2022/09/02 23:51:20;;;;;;;0.57;0.57;;;20.50;98.00;21.60;100932.00;;;;5014699;28;20232;-79
2022/09/02 23:54:42;;;;;;;0.68;0.68;;;20.40;98.00;21.40;100937.00;;;;5014614;28;20193;-79
2022/09/02 23:57:52;;;;;;;0.15;0.15;;;20.20;98.80;21.70;100912.00;;;;5013499;28;20196;-79
